Terminal Aerodrome Forecast
Issued by NWS Jackson, MS

Home | Current Version | Previous Version | Text Only | Print | Product List | Glossary On
Versions: 1 2 3 4 5 6 7 8 9 10 11 12
000
FTUS44 KJAN 271700
TAFGWO
TAF
KGWO 271720Z 2718/2818 05005KT P6SM SKC
     FM280900 00000KT 5SM BR SKC
     FM281300 19005KT P6SM SKC=

USA.gov is the U.S. government's official web portal to all federal, state and local government web resources and services.